sensor_id;sensor_type;location;lat;lon;timestamp;temperature;humidity
14140;DHT22;7150;53.514;9.988;2022-12-07T00:01:13;8.80;95.60
14140;DHT22;7150;53.514;9.988;2022-12-07T00:03:41;8.90;95.30
14140;DHT22;7150;53.514;9.988;2022-12-07T00:06:08;8.90;95.50
14140;DHT22;7150;53.514;9.988;2022-12-07T00:08:35;9.00;95.40
14140;DHT22;7150;53.514;9.988;2022-12-07T00:11:09;9.10;95.30
14140;DHT22;7150;53.514;9.988;2022-12-07T00:13:35;9.20;95.10
14140;DHT22;7150;53.514;9.988;2022-12-07T00:16:07;9.30;94.90
14140;DHT22;7150;53.514;9.988;2022-12-07T00:18:33;9.30;95.00
14140;DHT22;7150;53.514;9.988;2022-12-07T00:21:04;9.30;95.00
14140;DHT22;7150;53.514;9.988;2022-12-07T00:23:30;9.30;95.20
14140;DHT22;7150;53.514;9.988;2022-12-07T00:25:56;9.20;94.90
14140;DHT22;7150;53.514;9.988;2022-12-07T00:28:21;9.10;95.10
14140;DHT22;7150;53.514;9.988;2022-12-07T00:30:47;9.10;95.20
14140;DHT22;7150;53.514;9.988;2022-12-07T00:33:12;8.90;95.50
14140;DHT22;7150;53.514;9.988;2022-12-07T00:35:38;8.90;95.60
14140;DHT22;7150;53.514;9.988;2022-12-07T00:38:03;8.90;95.60
14140;DHT22;7150;53.514;9.988;2022-12-07T00:40:28;8.90;95.50
14140;DHT22;7150;53.514;9.988;2022-12-07T00:42:54;8.90;95.60
14140;DHT22;7150;53.514;9.988;2022-12-07T00:45:20;9.00;95.50
14140;DHT22;7150;53.514;9.988;2022-12-07T00:47:45;9.00;95.40
14140;DHT22;7150;53.514;9.988;2022-12-07T00:50:10;9.10;95.40
14140;DHT22;7150;53.514;9.988;2022-12-07T00:52:36;9.00;95.40
14140;DHT22;7150;53.514;9.988;2022-12-07T00:55:01;9.00;95.50
14140;DHT22;7150;53.514;9.988;2022-12-07T00:57:27;9.00;95.40
14140;DHT22;7150;53.514;9.988;2022-12-07T00:59:53;8.90;95.50
14140;DHT22;7150;53.514;9.988;2022-12-07T01:02:22;8.80;95.70
14140;DHT22;7150;53.514;9.988;2022-12-07T01:04:48;8.80;96.00
14140;DHT22;7150;53.514;9.988;2022-12-07T01:07:14;8.70;96.00
14140;DHT22;7150;53.514;9.988;2022-12-07T01:09:39;8.60;96.20
14140;DHT22;7150;53.514;9.988;2022-12-07T01:12:05;8.50;96.40
14140;DHT22;7150;53.514;9.988;2022-12-07T01:14:30;8.50;96.40
14140;DHT22;7150;53.514;9.988;2022-12-07T01:16:56;8.60;96.30
14140;DHT22;7150;53.514;9.988;2022-12-07T01:19:21;8.60;96.30
14140;DHT22;7150;53.514;9.988;2022-12-07T01:21:46;8.50;96.20
14140;DHT22;7150;53.514;9.988;2022-12-07T01:24:12;8.60;96.50
14140;DHT22;7150;53.514;9.988;2022-12-07T01:26:38;8.60;96.30
14140;DHT22;7150;53.514;9.988;2022-12-07T01:29:03;8.60;96.40
14140;DHT22;7150;53.514;9.988;2022-12-07T01:31:29;8.60;96.30
14140;DHT22;7150;53.514;9.988;2022-12-07T01:33:57;8.70;96.30
14140;DHT22;7150;53.514;9.988;2022-12-07T01:36:27;8.60;96.30
14140;DHT22;7150;53.514;9.988;2022-12-07T01:38:56;8.60;96.20
14140;DHT22;7150;53.514;9.988;2022-12-07T01:41:23;8.50;96.70
14140;DHT22;7150;53.514;9.988;2022-12-07T01:44:13;8.30;96.60
14140;DHT22;7150;53.514;9.988;2022-12-07T01:46:40;8.30;97.00
14140;DHT22;7150;53.514;9.988;2022-12-07T01:49:09;8.40;96.90
14140;DHT22;7150;53.514;9.988;2022-12-07T01:51:37;8.40;96.80
14140;DHT22;7150;53.514;9.988;2022-12-07T01:54:05;8.50;96.80
14140;DHT22;7150;53.514;9.988;2022-12-07T01:56:32;8.60;96.70
14140;DHT22;7150;53.514;9.988;2022-12-07T01:58:59;8.80;96.60
14140;DHT22;7150;53.514;9.988;2022-12-07T02:01:25;8.90;96.10
14140;DHT22;7150;53.514;9.988;2022-12-07T02:03:51;8.90;96.10
14140;DHT22;7150;53.514;9.988;2022-12-07T02:06:21;9.10;96.00
14140;DHT22;7150;53.514;9.988;2022-12-07T02:08:48;9.20;95.70
14140;DHT22;7150;53.514;9.988;2022-12-07T02:11:14;9.20;95.60
14140;DHT22;7150;53.514;9.988;2022-12-07T02:13:41;9.20;95.60
14140;DHT22;7150;53.514;9.988;2022-12-07T02:16:17;9.20;95.30
14140;DHT22;7150;53.514;9.988;2022-12-07T02:19:06;9.20;95.30
14140;DHT22;7150;53.514;9.988;2022-12-07T02:21:58;9.10;95.20
14140;DHT22;7150;53.514;9.988;2022-12-07T02:24:53;9.10;95.20
14140;DHT22;7150;53.514;9.988;2022-12-07T02:27:39;9.10;95.10
14140;DHT22;7150;53.514;9.988;2022-12-07T02:30:11;9.10;95.00
14140;DHT22;7150;53.514;9.988;2022-12-07T02:32:56;9.20;95.00
14140;DHT22;7150;53.514;9.988;2022-12-07T02:35:43;9.30;94.90
14140;DHT22;7150;53.514;9.988;2022-12-07T02:38:30;9.40;94.60
14140;DHT22;7150;53.514;9.988;2022-12-07T02:41:06;9.50;94.50
14140;DHT22;7150;53.514;9.988;2022-12-07T02:43:42;9.50;94.30
14140;DHT22;7150;53.514;9.988;2022-12-07T02:46:12;9.50;94.20
14140;DHT22;7150;53.514;9.988;2022-12-07T02:48:39;9.50;94.20
14140;DHT22;7150;53.514;9.988;2022-12-07T02:51:06;9.50;94.10
14140;DHT22;7150;53.514;9.988;2022-12-07T02:53:42;9.50;94.00
14140;DHT22;7150;53.514;9.988;2022-12-07T02:56:34;9.50;93.90
14140;DHT22;7150;53.514;9.988;2022-12-07T03:09:53;9.40;93.70
14140;DHT22;7150;53.514;9.988;2022-12-07T03:12:39;9.30;93.60
14140;DHT22;7150;53.514;9.988;2022-12-07T03:15:13;9.20;93.70
14140;DHT22;7150;53.514;9.988;2022-12-07T03:17:40;9.30;93.90
14140;DHT22;7150;53.514;9.988;2022-12-07T03:20:09;9.30;93.70
14140;DHT22;7150;53.514;9.988;2022-12-07T03:22:37;9.40;93.60
14140;DHT22;7150;53.514;9.988;2022-12-07T03:25:07;9.30;93.60
14140;DHT22;7150;53.514;9.988;2022-12-07T03:27:38;9.40;93.60
14140;DHT22;7150;53.514;9.988;2022-12-07T03:30:08;9.50;93.50
14140;DHT22;7150;53.514;9.988;2022-12-07T03:32:43;9.50;93.40
14140;DHT22;7150;53.514;9.988;2022-12-07T03:35:21;9.40;93.30
14140;DHT22;7150;53.514;9.988;2022-12-07T03:37:49;9.40;93.20
14140;DHT22;7150;53.514;9.988;2022-12-07T03:42:55;9.40;93.10
14140;DHT22;7150;53.514;9.988;2022-12-07T03:45:24;9.30;93.30
14140;DHT22;7150;53.514;9.988;2022-12-07T03:50:36;9.40;93.30
14140;DHT22;7150;53.514;9.988;2022-12-07T03:53:29;9.40;93.10
14140;DHT22;7150;53.514;9.988;2022-12-07T03:55:56;9.30;93.10
14140;DHT22;7150;53.514;9.988;2022-12-07T03:58:23;9.30;93.10
14140;DHT22;7150;53.514;9.988;2022-12-07T04:00:50;9.20;93.20
14140;DHT22;7150;53.514;9.988;2022-12-07T04:03:16;9.30;93.20
14140;DHT22;7150;53.514;9.988;2022-12-07T04:05:42;9.40;93.20
14140;DHT22;7150;53.514;9.988;2022-12-07T04:08:08;9.40;93.00
14140;DHT22;7150;53.514;9.988;2022-12-07T04:10:33;9.40;93.00
14140;DHT22;7150;53.514;9.988;2022-12-07T04:12:59;9.40;92.90
14140;DHT22;7150;53.514;9.988;2022-12-07T04:15:24;9.50;92.80
14140;DHT22;7150;53.514;9.988;2022-12-07T04:17:50;9.50;92.70
14140;DHT22;7150;53.514;9.988;2022-12-07T04:20:16;9.40;92.50
14140;DHT22;7150;53.514;9.988;2022-12-07T04:22:41;9.30;92.60
14140;DHT22;7150;53.514;9.988;2022-12-07T04:25:07;9.30;92.60
14140;DHT22;7150;53.514;9.988;2022-12-07T04:27:32;9.30;92.50
14140;DHT22;7150;53.514;9.988;2022-12-07T04:29:58;9.30;92.80
14140;DHT22;7150;53.514;9.988;2022-12-07T04:32:24;9.30;92.50
14140;DHT22;7150;53.514;9.988;2022-12-07T04:34:50;9.20;92.40
14140;DHT22;7150;53.514;9.988;2022-12-07T04:37:16;9.10;92.50
14140;DHT22;7150;53.514;9.988;2022-12-07T04:39:43;9.20;92.90
14140;DHT22;7150;53.514;9.988;2022-12-07T04:42:10;9.30;92.80
14140;DHT22;7150;53.514;9.988;2022-12-07T04:44:36;9.30;92.40
14140;DHT22;7150;53.514;9.988;2022-12-07T04:47:01;9.40;92.40
14140;DHT22;7150;53.514;9.988;2022-12-07T04:49:27;9.40;92.20
14140;DHT22;7150;53.514;9.988;2022-12-07T04:51:53;9.40;92.10
14140;DHT22;7150;53.514;9.988;2022-12-07T04:54:18;9.40;92.00
14140;DHT22;7150;53.514;9.988;2022-12-07T04:56:44;9.40;91.90
14140;DHT22;7150;53.514;9.988;2022-12-07T04:59:14;9.40;91.80
14140;DHT22;7150;53.514;9.988;2022-12-07T05:01:40;9.40;92.10
14140;DHT22;7150;53.514;9.988;2022-12-07T05:04:06;9.40;91.70
14140;DHT22;7150;53.514;9.988;2022-12-07T05:06:32;9.40;91.70
14140;DHT22;7150;53.514;9.988;2022-12-07T05:08:57;9.40;91.60
14140;DHT22;7150;53.514;9.988;2022-12-07T05:11:23;9.40;91.60
14140;DHT22;7150;53.514;9.988;2022-12-07T05:14:13;9.50;91.60
14140;DHT22;7150;53.514;9.988;2022-12-07T05:16:39;9.40;91.40
14140;DHT22;7150;53.514;9.988;2022-12-07T05:19:06;9.40;91.40
14140;DHT22;7150;53.514;9.988;2022-12-07T05:21:31;9.40;91.20
14140;DHT22;7150;53.514;9.988;2022-12-07T05:23:57;9.40;91.00
14140;DHT22;7150;53.514;9.988;2022-12-07T05:26:22;9.40;91.00
14140;DHT22;7150;53.514;9.988;2022-12-07T05:28:52;9.40;91.00
14140;DHT22;7150;53.514;9.988;2022-12-07T05:31:18;9.40;90.90
14140;DHT22;7150;53.514;9.988;2022-12-07T05:33:44;9.50;90.80
14140;DHT22;7150;53.514;9.988;2022-12-07T05:36:09;9.40;90.60
14140;DHT22;7150;53.514;9.988;2022-12-07T05:38:35;9.50;90.60
14140;DHT22;7150;53.514;9.988;2022-12-07T05:41:04;9.40;90.50
14140;DHT22;7150;53.514;9.988;2022-12-07T05:43:31;9.40;90.30
14140;DHT22;7150;53.514;9.988;2022-12-07T05:45:57;9.30;90.40
14140;DHT22;7150;53.514;9.988;2022-12-07T05:48:23;9.30;90.30
14140;DHT22;7150;53.514;9.988;2022-12-07T05:50:49;9.30;90.30
14140;DHT22;7150;53.514;9.988;2022-12-07T05:53:15;9.30;90.40
14140;DHT22;7150;53.514;9.988;2022-12-07T05:55:41;9.40;90.40
14140;DHT22;7150;53.514;9.988;2022-12-07T05:58:06;9.30;90.30
14140;DHT22;7150;53.514;9.988;2022-12-07T06:00:50;9.30;90.10
14140;DHT22;7150;53.514;9.988;2022-12-07T06:03:16;9.20;90.20
14140;DHT22;7150;53.514;9.988;2022-12-07T06:05:41;9.20;90.20
14140;DHT22;7150;53.514;9.988;2022-12-07T06:08:07;9.20;90.30
14140;DHT22;7150;53.514;9.988;2022-12-07T06:10:33;9.20;90.20
14140;DHT22;7150;53.514;9.988;2022-12-07T06:12:58;9.10;90.30
14140;DHT22;7150;53.514;9.988;2022-12-07T06:15:24;9.10;90.30
14140;DHT22;7150;53.514;9.988;2022-12-07T06:17:49;9.10;90.40
14140;DHT22;7150;53.514;9.988;2022-12-07T06:20:15;9.20;90.30
14140;DHT22;7150;53.514;9.988;2022-12-07T06:22:40;9.20;90.40
14140;DHT22;7150;53.514;9.988;2022-12-07T06:25:06;9.20;90.40
14140;DHT22;7150;53.514;9.988;2022-12-07T06:27:32;9.20;90.50
14140;DHT22;7150;53.514;9.988;2022-12-07T06:29:59;9.20;90.40
14140;DHT22;7150;53.514;9.988;2022-12-07T06:32:25;9.20;90.50
14140;DHT22;7150;53.514;9.988;2022-12-07T06:34:50;9.00;90.60
14140;DHT22;7150;53.514;9.988;2022-12-07T06:37:16;8.90;90.70
14140;DHT22;7150;53.514;9.988;2022-12-07T06:39:41;8.80;90.80
14140;DHT22;7150;53.514;9.988;2022-12-07T06:42:07;8.70;91.10
14140;DHT22;7150;53.514;9.988;2022-12-07T06:44:32;8.50;91.50
14140;DHT22;7150;53.514;9.988;2022-12-07T06:46:58;8.30;91.90
14140;DHT22;7150;53.514;9.988;2022-12-07T06:49:23;8.20;92.20
14140;DHT22;7150;53.514;9.988;2022-12-07T06:51:49;8.10;92.60
14140;DHT22;7150;53.514;9.988;2022-12-07T06:54:15;8.10;92.70
14140;DHT22;7150;53.514;9.988;2022-12-07T06:56:41;8.10;92.90
14140;DHT22;7150;53.514;9.988;2022-12-07T06:59:07;8.20;92.90
14140;DHT22;7150;53.514;9.988;2022-12-07T07:01:34;8.30;92.60
14140;DHT22;7150;53.514;9.988;2022-12-07T07:04:00;8.40;92.60
14140;DHT22;7150;53.514;9.988;2022-12-07T07:06:26;8.50;92.40
14140;DHT22;7150;53.514;9.988;2022-12-07T07:08:51;8.50;92.40
14140;DHT22;7150;53.514;9.988;2022-12-07T07:11:17;8.60;92.20
14140;DHT22;7150;53.514;9.988;2022-12-07T07:13:43;8.50;92.20
14140;DHT22;7150;53.514;9.988;2022-12-07T07:16:09;8.50;92.30
14140;DHT22;7150;53.514;9.988;2022-12-07T07:18:35;8.60;92.30
14140;DHT22;7150;53.514;9.988;2022-12-07T07:21:01;8.50;92.40
14140;DHT22;7150;53.514;9.988;2022-12-07T07:23:27;8.40;92.50
14140;DHT22;7150;53.514;9.988;2022-12-07T07:25:52;8.40;92.60
14140;DHT22;7150;53.514;9.988;2022-12-07T07:28:18;8.40;92.60
14140;DHT22;7150;53.514;9.988;2022-12-07T07:30:43;8.50;92.50
14140;DHT22;7150;53.514;9.988;2022-12-07T07:33:10;8.60;92.40
14140;DHT22;7150;53.514;9.988;2022-12-07T07:35:36;8.60;92.30
14140;DHT22;7150;53.514;9.988;2022-12-07T07:38:02;8.50;92.20
14140;DHT22;7150;53.514;9.988;2022-12-07T07:40:29;8.50;92.20
14140;DHT22;7150;53.514;9.988;2022-12-07T07:42:55;8.40;92.30
14140;DHT22;7150;53.514;9.988;2022-12-07T07:45:22;8.40;92.40
14140;DHT22;7150;53.514;9.988;2022-12-07T07:47:48;8.30;92.40
14140;DHT22;7150;53.514;9.988;2022-12-07T07:50:14;8.20;92.60
14140;DHT22;7150;53.514;9.988;2022-12-07T07:52:40;8.20;92.80
14140;DHT22;7150;53.514;9.988;2022-12-07T07:55:06;8.20;92.70
14140;DHT22;7150;53.514;9.988;2022-12-07T07:57:34;8.20;92.90
14140;DHT22;7150;53.514;9.988;2022-12-07T08:00:01;8.30;92.80
14140;DHT22;7150;53.514;9.988;2022-12-07T08:02:26;8.40;92.80
14140;DHT22;7150;53.514;9.988;2022-12-07T08:04:54;8.50;92.70
14140;DHT22;7150;53.514;9.988;2022-12-07T08:07:20;8.60;92.60
14140;DHT22;7150;53.514;9.988;2022-12-07T08:09:45;8.60;92.30
14140;DHT22;7150;53.514;9.988;2022-12-07T08:12:11;8.60;92.50
14140;DHT22;7150;53.514;9.988;2022-12-07T08:14:36;8.60;92.50
14140;DHT22;7150;53.514;9.988;2022-12-07T08:17:05;8.60;92.50
14140;DHT22;7150;53.514;9.988;2022-12-07T08:19:33;8.70;92.30
14140;DHT22;7150;53.514;9.988;2022-12-07T08:21:59;8.70;92.40
14140;DHT22;7150;53.514;9.988;2022-12-07T08:24:25;8.70;92.50
14140;DHT22;7150;53.514;9.988;2022-12-07T08:26:51;8.80;92.40
14140;DHT22;7150;53.514;9.988;2022-12-07T08:29:16;8.80;92.20
14140;DHT22;7150;53.514;9.988;2022-12-07T08:31:42;8.80;92.40
14140;DHT22;7150;53.514;9.988;2022-12-07T08:34:10;8.80;92.30
14140;DHT22;7150;53.514;9.988;2022-12-07T08:36:36;8.80;92.30
14140;DHT22;7150;53.514;9.988;2022-12-07T08:39:02;8.90;92.20
14140;DHT22;7150;53.514;9.988;2022-12-07T08:41:28;8.80;92.20
14140;DHT22;7150;53.514;9.988;2022-12-07T08:43:53;8.70;92.40
14140;DHT22;7150;53.514;9.988;2022-12-07T08:46:23;8.60;92.70
14140;DHT22;7150;53.514;9.988;2022-12-07T08:48:56;8.60;92.80
14140;DHT22;7150;53.514;9.988;2022-12-07T08:51:23;8.60;93.00
14140;DHT22;7150;53.514;9.988;2022-12-07T08:53:50;8.60;93.00
14140;DHT22;7150;53.514;9.988;2022-12-07T08:56:16;8.80;93.00
14140;DHT22;7150;53.514;9.988;2022-12-07T08:58:42;8.90;92.80
14140;DHT22;7150;53.514;9.988;2022-12-07T09:01:08;9.00;92.70
14140;DHT22;7150;53.514;9.988;2022-12-07T09:03:34;9.00;92.60
14140;DHT22;7150;53.514;9.988;2022-12-07T09:05:59;9.00;92.60
14140;DHT22;7150;53.514;9.988;2022-12-07T09:08:30;9.10;92.60
14140;DHT22;7150;53.514;9.988;2022-12-07T09:10:56;9.20;92.50
14140;DHT22;7150;53.514;9.988;2022-12-07T09:13:22;9.10;92.40
14140;DHT22;7150;53.514;9.988;2022-12-07T09:15:47;9.00;92.40
14140;DHT22;7150;53.514;9.988;2022-12-07T09:18:13;8.90;92.60
14140;DHT22;7150;53.514;9.988;2022-12-07T09:20:38;8.90;92.80
14140;DHT22;7150;53.514;9.988;2022-12-07T09:23:05;8.80;92.90
14140;DHT22;7150;53.514;9.988;2022-12-07T09:25:33;8.80;93.10
14140;DHT22;7150;53.514;9.988;2022-12-07T09:27:59;8.70;93.00
14140;DHT22;7150;53.514;9.988;2022-12-07T09:30:25;8.90;93.10
14140;DHT22;7150;53.514;9.988;2022-12-07T09:32:53;9.00;93.10
14140;DHT22;7150;53.514;9.988;2022-12-07T09:35:19;9.20;92.90
14140;DHT22;7150;53.514;9.988;2022-12-07T09:37:45;9.20;92.60
14140;DHT22;7150;53.514;9.988;2022-12-07T09:40:11;9.10;92.80
14140;DHT22;7150;53.514;9.988;2022-12-07T09:42:39;9.20;92.80
14140;DHT22;7150;53.514;9.988;2022-12-07T09:45:16;9.30;92.70
14140;DHT22;7150;53.514;9.988;2022-12-07T09:47:42;9.30;92.60
14140;DHT22;7150;53.514;9.988;2022-12-07T09:50:16;9.30;92.80
14140;DHT22;7150;53.514;9.988;2022-12-07T09:52:44;9.30;92.50
14140;DHT22;7150;53.514;9.988;2022-12-07T09:55:16;9.20;92.70
14140;DHT22;7150;53.514;9.988;2022-12-07T09:57:42;9.30;92.80
14140;DHT22;7150;53.514;9.988;2022-12-07T10:00:16;9.20;92.70
14140;DHT22;7150;53.514;9.988;2022-12-07T10:02:46;9.20;92.50
14140;DHT22;7150;53.514;9.988;2022-12-07T10:05:15;9.10;92.40
14140;DHT22;7150;53.514;9.988;2022-12-07T10:07:41;9.20;92.60
14140;DHT22;7150;53.514;9.988;2022-12-07T10:10:30;9.40;92.40
14140;DHT22;7150;53.514;9.988;2022-12-07T10:13:00;9.50;92.10
14140;DHT22;7150;53.514;9.988;2022-12-07T10:15:54;9.50;91.80
14140;DHT22;7150;53.514;9.988;2022-12-07T10:18:38;9.60;91.80
14140;DHT22;7150;53.514;9.988;2022-12-07T10:21:16;9.60;91.60
14140;DHT22;7150;53.514;9.988;2022-12-07T10:26:35;9.50;91.30
14140;DHT22;7150;53.514;9.988;2022-12-07T10:29:17;9.40;91.30
14140;DHT22;7150;53.514;9.988;2022-12-07T10:31:45;9.20;91.20
14140;DHT22;7150;53.514;9.988;2022-12-07T10:36:52;9.20;91.40
14140;DHT22;7150;53.514;9.988;2022-12-07T10:39:20;9.30;91.30
14140;DHT22;7150;53.514;9.988;2022-12-07T10:42:03;9.10;91.30
14140;DHT22;7150;53.514;9.988;2022-12-07T10:44:31;9.10;91.40
14140;DHT22;7150;53.514;9.988;2022-12-07T11:00:23;9.50;91.10
14140;DHT22;7150;53.514;9.988;2022-12-07T11:03:14;9.40;91.20
14140;DHT22;7150;53.514;9.988;2022-12-07T11:05:56;9.40;91.10
14140;DHT22;7150;53.514;9.988;2022-12-07T11:13:53;9.60;91.30
14140;DHT22;7150;53.514;9.988;2022-12-07T11:21:56;9.70;90.90
14140;DHT22;7150;53.514;9.988;2022-12-07T11:24:40;9.80;91.00
14140;DHT22;7150;53.514;9.988;2022-12-07T11:30:16;9.70;90.70
14140;DHT22;7150;53.514;9.988;2022-12-07T11:32:53;9.70;90.80
14140;DHT22;7150;53.514;9.988;2022-12-07T11:36:25;9.70;90.70
14140;DHT22;7150;53.514;9.988;2022-12-07T11:38:44;9.70;90.80
14140;DHT22;7150;53.514;9.988;2022-12-07T11:41:12;9.80;90.90
14140;DHT22;7150;53.514;9.988;2022-12-07T11:44:05;9.80;90.70
14140;DHT22;7150;53.514;9.988;2022-12-07T11:49:27;9.80;90.60
14140;DHT22;7150;53.514;9.988;2022-12-07T11:52:00;9.80;90.40
14140;DHT22;7150;53.514;9.988;2022-12-07T11:54:29;9.80;90.40
14140;DHT22;7150;53.514;9.988;2022-12-07T11:57:02;9.90;90.40
14140;DHT22;7150;53.514;9.988;2022-12-07T11:59:40;9.90;90.50
14140;DHT22;7150;53.514;9.988;2022-12-07T12:02:27;9.90;90.40
14140;DHT22;7150;53.514;9.988;2022-12-07T12:05:18;9.80;90.00
14140;DHT22;7150;53.514;9.988;2022-12-07T12:07:46;9.80;90.20
14140;DHT22;7150;53.514;9.988;2022-12-07T12:16:20;9.80;90.00
14140;DHT22;7150;53.514;9.988;2022-12-07T12:19:19;9.80;89.50
14140;DHT22;7150;53.514;9.988;2022-12-07T12:21:49;9.90;89.60
14140;DHT22;7150;53.514;9.988;2022-12-07T12:24:22;9.90;89.40
14140;DHT22;7150;53.514;9.988;2022-12-07T12:26:53;9.90;89.80
14140;DHT22;7150;53.514;9.988;2022-12-07T12:29:31;10.00;88.80
14140;DHT22;7150;53.514;9.988;2022-12-07T12:42:47;10.20;87.70
14140;DHT22;7150;53.514;9.988;2022-12-07T12:45:28;10.10;88.00
14140;DHT22;7150;53.514;9.988;2022-12-07T12:48:03;10.10;88.70
14140;DHT22;7150;53.514;9.988;2022-12-07T12:50:34;10.20;88.60
14140;DHT22;7150;53.514;9.988;2022-12-07T12:56:02;10.20;89.00
14140;DHT22;7150;53.514;9.988;2022-12-07T12:58:37;10.20;89.60
14140;DHT22;7150;53.514;9.988;2022-12-07T13:01:40;10.20;89.10
14140;DHT22;7150;53.514;9.988;2022-12-07T13:06:50;10.10;89.00
14140;DHT22;7150;53.514;9.988;2022-12-07T13:09:30;10.10;88.70
14140;DHT22;7150;53.514;9.988;2022-12-07T13:12:05;10.20;88.30
14140;DHT22;7150;53.514;9.988;2022-12-07T13:14:56;10.20;87.70
14140;DHT22;7150;53.514;9.988;2022-12-07T13:20:04;10.10;88.30
14140;DHT22;7150;53.514;9.988;2022-12-07T13:25:03;10.10;87.70
14140;DHT22;7150;53.514;9.988;2022-12-07T13:27:30;10.10;87.60
14140;DHT22;7150;53.514;9.988;2022-12-07T13:29:56;10.00;86.90
14140;DHT22;7150;53.514;9.988;2022-12-07T13:32:29;10.00;86.70
14140;DHT22;7150;53.514;9.988;2022-12-07T13:34:55;10.10;86.40
14140;DHT22;7150;53.514;9.988;2022-12-07T13:37:25;10.00;86.30
14140;DHT22;7150;53.514;9.988;2022-12-07T13:39:57;10.00;86.50
14140;DHT22;7150;53.514;9.988;2022-12-07T13:42:31;10.10;86.70
14140;DHT22;7150;53.514;9.988;2022-12-07T13:44:58;10.30;86.60
14140;DHT22;7150;53.514;9.988;2022-12-07T13:47:35;10.30;86.20
14140;DHT22;7150;53.514;9.988;2022-12-07T13:50:26;10.40;86.40
14140;DHT22;7150;53.514;9.988;2022-12-07T13:52:55;10.50;86.50
14140;DHT22;7150;53.514;9.988;2022-12-07T13:55:21;10.40;85.60
14140;DHT22;7150;53.514;9.988;2022-12-07T13:57:50;10.50;85.70
14140;DHT22;7150;53.514;9.988;2022-12-07T14:03:03;10.60;85.80
14140;DHT22;7150;53.514;9.988;2022-12-07T14:05:34;10.60;85.80
14140;DHT22;7150;53.514;9.988;2022-12-07T14:13:04;10.50;82.40
14140;DHT22;7150;53.514;9.988;2022-12-07T14:15:50;10.50;81.20
14140;DHT22;7150;53.514;9.988;2022-12-07T14:18:28;10.50;77.90
14140;DHT22;7150;53.514;9.988;2022-12-07T14:21:17;10.50;77.70
14140;DHT22;7150;53.514;9.988;2022-12-07T14:23:45;10.60;77.80
14140;DHT22;7150;53.514;9.988;2022-12-07T14:26:16;10.60;77.40
14140;DHT22;7150;53.514;9.988;2022-12-07T14:28:43;10.50;73.90
14140;DHT22;7150;53.514;9.988;2022-12-07T14:31:15;10.30;74.50
14140;DHT22;7150;53.514;9.988;2022-12-07T14:33:41;10.30;74.10
14140;DHT22;7150;53.514;9.988;2022-12-07T14:36:14;10.40;74.00
14140;DHT22;7150;53.514;9.988;2022-12-07T14:38:40;10.50;73.20
14140;DHT22;7150;53.514;9.988;2022-12-07T14:41:13;10.40;73.00
14140;DHT22;7150;53.514;9.988;2022-12-07T14:43:58;10.40;73.30
14140;DHT22;7150;53.514;9.988;2022-12-07T14:46:24;10.40;72.00
14140;DHT22;7150;53.514;9.988;2022-12-07T14:48:49;10.40;72.20
14140;DHT22;7150;53.514;9.988;2022-12-07T14:51:15;10.30;70.40
14140;DHT22;7150;53.514;9.988;2022-12-07T14:53:48;10.30;70.70
14140;DHT22;7150;53.514;9.988;2022-12-07T14:56:13;10.20;71.70
14140;DHT22;7150;53.514;9.988;2022-12-07T14:58:40;10.20;71.60
14140;DHT22;7150;53.514;9.988;2022-12-07T15:01:05;10.20;71.70
14140;DHT22;7150;53.514;9.988;2022-12-07T15:03:31;10.20;71.10
14140;DHT22;7150;53.514;9.988;2022-12-07T15:05:56;10.20;71.00
14140;DHT22;7150;53.514;9.988;2022-12-07T15:08:22;10.20;70.50
14140;DHT22;7150;53.514;9.988;2022-12-07T15:10:48;10.20;70.40
14140;DHT22;7150;53.514;9.988;2022-12-07T15:13:13;10.20;71.50
14140;DHT22;7150;53.514;9.988;2022-12-07T15:15:57;10.20;72.00
14140;DHT22;7150;53.514;9.988;2022-12-07T15:18:24;10.20;71.90
14140;DHT22;7150;53.514;9.988;2022-12-07T15:20:49;10.30;70.60
14140;DHT22;7150;53.514;9.988;2022-12-07T15:23:15;10.20;70.90
14140;DHT22;7150;53.514;9.988;2022-12-07T15:25:42;10.20;71.30
14140;DHT22;7150;53.514;9.988;2022-12-07T15:28:08;10.30;71.80
14140;DHT22;7150;53.514;9.988;2022-12-07T15:30:34;10.20;70.80
14140;DHT22;7150;53.514;9.988;2022-12-07T15:32:59;10.20;70.60
14140;DHT22;7150;53.514;9.988;2022-12-07T15:35:25;10.30;70.90
14140;DHT22;7150;53.514;9.988;2022-12-07T15:37:50;10.20;70.50
14140;DHT22;7150;53.514;9.988;2022-12-07T15:40:16;10.20;70.60
14140;DHT22;7150;53.514;9.988;2022-12-07T15:42:42;10.30;71.40
14140;DHT22;7150;53.514;9.988;2022-12-07T15:45:08;10.30;72.10
14140;DHT22;7150;53.514;9.988;2022-12-07T15:47:39;10.20;71.10
14140;DHT22;7150;53.514;9.988;2022-12-07T15:50:07;10.20;71.40
14140;DHT22;7150;53.514;9.988;2022-12-07T15:52:33;10.20;72.10
14140;DHT22;7150;53.514;9.988;2022-12-07T15:54:59;10.20;71.50
14140;DHT22;7150;53.514;9.988;2022-12-07T15:57:26;10.20;71.40
14140;DHT22;7150;53.514;9.988;2022-12-07T15:59:51;10.20;71.60
14140;DHT22;7150;53.514;9.988;2022-12-07T16:02:17;10.10;72.10
14140;DHT22;7150;53.514;9.988;2022-12-07T16:04:43;10.10;72.60
14140;DHT22;7150;53.514;9.988;2022-12-07T16:07:09;10.10;72.80
14140;DHT22;7150;53.514;9.988;2022-12-07T16:09:37;10.10;73.00
14140;DHT22;7150;53.514;9.988;2022-12-07T16:12:03;10.00;73.20
14140;DHT22;7150;53.514;9.988;2022-12-07T16:14:28;9.90;73.60
14140;DHT22;7150;53.514;9.988;2022-12-07T16:16:54;10.00;72.30
14140;DHT22;7150;53.514;9.988;2022-12-07T16:19:20;10.00;72.60
14140;DHT22;7150;53.514;9.988;2022-12-07T16:21:46;10.00;73.10
14140;DHT22;7150;53.514;9.988;2022-12-07T16:24:11;9.90;74.20
14140;DHT22;7150;53.514;9.988;2022-12-07T16:26:40;9.90;74.30
14140;DHT22;7150;53.514;9.988;2022-12-07T16:29:06;10.00;73.30
14140;DHT22;7150;53.514;9.988;2022-12-07T16:31:31;9.90;74.60
14140;DHT22;7150;53.514;9.988;2022-12-07T16:33:58;9.90;73.40
14140;DHT22;7150;53.514;9.988;2022-12-07T16:36:24;9.90;73.70
14140;DHT22;7150;53.514;9.988;2022-12-07T16:38:51;9.90;74.40
14140;DHT22;7150;53.514;9.988;2022-12-07T16:41:17;9.90;74.90
14140;DHT22;7150;53.514;9.988;2022-12-07T16:43:43;9.80;75.60
14140;DHT22;7150;53.514;9.988;2022-12-07T16:46:08;9.80;75.70
14140;DHT22;7150;53.514;9.988;2022-12-07T16:48:38;9.80;75.70
14140;DHT22;7150;53.514;9.988;2022-12-07T16:51:09;9.80;76.00
14140;DHT22;7150;53.514;9.988;2022-12-07T16:53:36;9.80;76.00
14140;DHT22;7150;53.514;9.988;2022-12-07T16:56:02;9.80;76.40
14140;DHT22;7150;53.514;9.988;2022-12-07T16:58:28;9.80;75.60
14140;DHT22;7150;53.514;9.988;2022-12-07T17:00:54;9.80;75.10
14140;DHT22;7150;53.514;9.988;2022-12-07T17:03:19;9.80;74.80
14140;DHT22;7150;53.514;9.988;2022-12-07T17:05:46;9.70;74.60
14140;DHT22;7150;53.514;9.988;2022-12-07T17:08:12;9.70;74.40
14140;DHT22;7150;53.514;9.988;2022-12-07T17:10:40;9.70;74.70
14140;DHT22;7150;53.514;9.988;2022-12-07T17:13:06;9.70;74.70
14140;DHT22;7150;53.514;9.988;2022-12-07T17:16:03;9.70;74.60
14140;DHT22;7150;53.514;9.988;2022-12-07T17:18:33;9.70;74.60
14140;DHT22;7150;53.514;9.988;2022-12-07T17:21:07;9.70;75.00
14140;DHT22;7150;53.514;9.988;2022-12-07T17:23:35;9.70;74.30
14140;DHT22;7150;53.514;9.988;2022-12-07T17:26:09;9.90;74.60
14140;DHT22;7150;53.514;9.988;2022-12-07T17:28:35;9.70;74.90
14140;DHT22;7150;53.514;9.988;2022-12-07T17:31:04;9.70;74.40
14140;DHT22;7150;53.514;9.988;2022-12-07T17:33:31;9.70;75.10
14140;DHT22;7150;53.514;9.988;2022-12-07T17:35:57;9.70;75.40
14140;DHT22;7150;53.514;9.988;2022-12-07T17:38:22;9.70;76.00